<?xml version="1.0" encoding="UTF-8" standalone="no" ?>
<gpx xmlns="http://www.topografix.com/GPX/1/1" xmlns:xsi="http://www.w3.org/2001/XMLSchema-instance" xsi:schemaLocation="http://www.topografix.com/GPX/1/1 http://www.topografix.com/GPX/1/1/gpx.xsd" version="1.1" creator="VisuGPX - https://www.visugpx.com">
  <metadata>
    <name>La Lentille, par col du Granier</name>
    <desc><![CDATA[Col du Granier, Joigny, Grand Carroz, col de Fontanette, Lentille, col de la Drière, Joigny, col du Granier]]></desc>
  </metadata>
  <trk>
    <name><![CDATA[10779163-La Lentille, col du Granier]]></name>
    <trkseg>
      <trkpt lat="45.48008" lon="5.91439">
        <ele>1137</ele>
        <time>2019-12-09T18:18:22Z</time>
      </trkpt>
      <trkpt lat="45.48004" lon="5.91372">
        <ele>1140</ele>
        <time>2019-12-09T18:19:25Z</time>
      </trkpt>
      <trkpt lat="45.48013" lon="5.91276">
        <ele>1149</ele>
        <time>2019-12-09T18:20:56Z</time>
      </trkpt>
      <trkpt lat="45.48008" lon="5.91158">
        <ele>1160</ele>
        <time>2019-12-09T18:22:46Z</time>
      </trkpt>
      <trkpt lat="45.47968" lon="5.91093">
        <ele>1155</ele>
        <time>2019-12-09T18:24:07Z</time>
      </trkpt>
      <trkpt lat="45.47939" lon="5.90935">
        <ele>1169</ele>
        <time>2019-12-09T18:26:40Z</time>
      </trkpt>
      <trkpt lat="45.47905" lon="5.90832">
        <ele>1173</ele>
        <time>2019-12-09T18:28:26Z</time>
      </trkpt>
      <trkpt lat="45.47915" lon="5.90767">
        <ele>1187</ele>
        <time>2019-12-09T18:29:29Z</time>
      </trkpt>
      <trkpt lat="45.47882" lon="5.90647">
        <ele>1188</ele>
        <time>2019-12-09T18:31:29Z</time>
      </trkpt>
      <trkpt lat="45.47867" lon="5.90518">
        <ele>1192</ele>
        <time>2019-12-09T18:33:32Z</time>
      </trkpt>
      <trkpt lat="45.47873" lon="5.90392">
        <ele>1195</ele>
        <time>2019-12-09T18:35:30Z</time>
      </trkpt>
      <trkpt lat="45.47882" lon="5.90248">
        <ele>1203</ele>
        <time>2019-12-09T18:37:45Z</time>
      </trkpt>
      <trkpt lat="45.47893" lon="5.90132">
        <ele>1201</ele>
        <time>2019-12-09T18:39:35Z</time>
      </trkpt>
      <trkpt lat="45.47914" lon="5.90057">
        <ele>1199</ele>
        <time>2019-12-09T18:40:50Z</time>
      </trkpt>
      <trkpt lat="45.48005" lon="5.90021">
        <ele>1200</ele>
        <time>2019-12-09T18:42:56Z</time>
      </trkpt>
      <trkpt lat="45.48153" lon="5.89952">
        <ele>1188</ele>
        <time>2019-12-09T18:46:24Z</time>
      </trkpt>
      <trkpt lat="45.48266" lon="5.89903">
        <ele>1186</ele>
        <time>2019-12-09T18:49:02Z</time>
      </trkpt>
      <trkpt lat="45.48361" lon="5.89795">
        <ele>1191</ele>
        <time>2019-12-09T18:51:44Z</time>
      </trkpt>
      <trkpt lat="45.48372" lon="5.89785">
        <ele>1192</ele>
        <time>2019-12-09T18:52:01Z</time>
      </trkpt>
      <trkpt lat="45.48428" lon="5.89675">
        <ele>1202</ele>
        <time>2019-12-09T18:54:08Z</time>
      </trkpt>
      <trkpt lat="45.48487" lon="5.89578">
        <ele>1217</ele>
        <time>2019-12-09T18:56:08Z</time>
      </trkpt>
      <trkpt lat="45.48435" lon="5.89555">
        <ele>1213</ele>
        <time>2019-12-09T18:57:21Z</time>
      </trkpt>
      <trkpt lat="45.48398" lon="5.89499">
        <ele>1212</ele>
        <time>2019-12-09T18:58:33Z</time>
      </trkpt>
      <trkpt lat="45.4849" lon="5.89445">
        <ele>1208</ele>
        <time>2019-12-09T19:00:46Z</time>
      </trkpt>
      <trkpt lat="45.48533" lon="5.89407">
        <ele>1213</ele>
        <time>2019-12-09T19:01:53Z</time>
      </trkpt>
      <trkpt lat="45.48558" lon="5.89364">
        <ele>1210</ele>
        <time>2019-12-09T19:02:46Z</time>
      </trkpt>
      <trkpt lat="45.4857" lon="5.89321">
        <ele>1204</ele>
        <time>2019-12-09T19:03:29Z</time>
      </trkpt>
      <trkpt lat="45.48597" lon="5.8922">
        <ele>1196</ele>
        <time>2019-12-09T19:05:10Z</time>
      </trkpt>
      <trkpt lat="45.48616" lon="5.89192">
        <ele>1196</ele>
        <time>2019-12-09T19:05:47Z</time>
      </trkpt>
      <trkpt lat="45.48648" lon="5.89158">
        <ele>1196</ele>
        <time>2019-12-09T19:06:40Z</time>
      </trkpt>
      <trkpt lat="45.48642" lon="5.89126">
        <ele>1188</ele>
        <time>2019-12-09T19:07:11Z</time>
      </trkpt>
      <trkpt lat="45.48608" lon="5.89121">
        <ele>1183</ele>
        <time>2019-12-09T19:07:56Z</time>
      </trkpt>
      <trkpt lat="45.48562" lon="5.89135">
        <ele>1176</ele>
        <time>2019-12-09T19:08:59Z</time>
      </trkpt>
      <trkpt lat="45.4852" lon="5.89162">
        <ele>1170</ele>
        <time>2019-12-09T19:10:01Z</time>
      </trkpt>
      <trkpt lat="45.48458" lon="5.89124">
        <ele>1143</ele>
        <time>2019-12-09T19:11:31Z</time>
      </trkpt>
      <trkpt lat="45.48424" lon="5.89113">
        <ele>1129</ele>
        <time>2019-12-09T19:12:17Z</time>
      </trkpt>
      <trkpt lat="45.48413" lon="5.89132">
        <ele>1128</ele>
        <time>2019-12-09T19:12:40Z</time>
      </trkpt>
      <trkpt lat="45.48397" lon="5.89091">
        <ele>1114</ele>
        <time>2019-12-09T19:13:24Z</time>
      </trkpt>
      <trkpt lat="45.48348" lon="5.89192">
        <ele>1119</ele>
        <time>2019-12-09T19:15:19Z</time>
      </trkpt>
      <trkpt lat="45.48351" lon="5.89089">
        <ele>1093</ele>
        <time>2019-12-09T19:16:55Z</time>
      </trkpt>
      <trkpt lat="45.48332" lon="5.89053">
        <ele>1079</ele>
        <time>2019-12-09T19:17:38Z</time>
      </trkpt>
      <trkpt lat="45.48323" lon="5.8901">
        <ele>1071</ele>
        <time>2019-12-09T19:18:20Z</time>
      </trkpt>
      <trkpt lat="45.48276" lon="5.88903">
        <ele>1048</ele>
        <time>2019-12-09T19:20:18Z</time>
      </trkpt>
      <trkpt lat="45.48225" lon="5.88879">
        <ele>1039</ele>
        <time>2019-12-09T19:21:29Z</time>
      </trkpt>
      <trkpt lat="45.4819" lon="5.8885">
        <ele>1030</ele>
        <time>2019-12-09T19:22:23Z</time>
      </trkpt>
      <trkpt lat="45.48227" lon="5.88817">
        <ele>1033</ele>
        <time>2019-12-09T19:23:22Z</time>
      </trkpt>
      <trkpt lat="45.48279" lon="5.88838">
        <ele>1040</ele>
        <time>2019-12-09T19:24:34Z</time>
      </trkpt>
      <trkpt lat="45.48251" lon="5.88744">
        <ele>1030</ele>
        <time>2019-12-09T19:26:09Z</time>
      </trkpt>
      <trkpt lat="45.48166" lon="5.8866">
        <ele>1041</ele>
        <time>2019-12-09T19:28:27Z</time>
      </trkpt>
      <trkpt lat="45.48111" lon="5.88649">
        <ele>1047</ele>
        <time>2019-12-09T19:29:41Z</time>
      </trkpt>
      <trkpt lat="45.48111" lon="5.88561">
        <ele>1055</ele>
        <time>2019-12-09T19:31:04Z</time>
      </trkpt>
      <trkpt lat="45.4809" lon="5.88542">
        <ele>1058</ele>
        <time>2019-12-09T19:31:37Z</time>
      </trkpt>
      <trkpt lat="45.48087" lon="5.88495">
        <ele>1066</ele>
        <time>2019-12-09T19:32:21Z</time>
      </trkpt>
      <trkpt lat="45.4811" lon="5.88449">
        <ele>1071</ele>
        <time>2019-12-09T19:33:14Z</time>
      </trkpt>
      <trkpt lat="45.48125" lon="5.88455">
        <ele>1072</ele>
        <time>2019-12-09T19:33:35Z</time>
      </trkpt>
      <trkpt lat="45.48144" lon="5.88406">
        <ele>1081</ele>
        <time>2019-12-09T19:34:27Z</time>
      </trkpt>
      <trkpt lat="45.48142" lon="5.88378">
        <ele>1086</ele>
        <time>2019-12-09T19:34:54Z</time>
      </trkpt>
      <trkpt lat="45.48168" lon="5.88353">
        <ele>1097</ele>
        <time>2019-12-09T19:35:35Z</time>
      </trkpt>
      <trkpt lat="45.48211" lon="5.88337">
        <ele>1107</ele>
        <time>2019-12-09T19:36:35Z</time>
      </trkpt>
      <trkpt lat="45.48245" lon="5.88343">
        <ele>1110</ele>
        <time>2019-12-09T19:37:20Z</time>
      </trkpt>
      <trkpt lat="45.48284" lon="5.88287">
        <ele>1115</ele>
        <time>2019-12-09T19:38:34Z</time>
      </trkpt>
      <trkpt lat="45.48291" lon="5.88244">
        <ele>1119</ele>
        <time>2019-12-09T19:39:16Z</time>
      </trkpt>
      <trkpt lat="45.48307" lon="5.88167">
        <ele>1130</ele>
        <time>2019-12-09T19:40:31Z</time>
      </trkpt>
      <trkpt lat="45.48311" lon="5.88046">
        <ele>1166</ele>
        <time>2019-12-09T19:42:24Z</time>
      </trkpt>
      <trkpt lat="45.48335" lon="5.87984">
        <ele>1181</ele>
        <time>2019-12-09T19:43:30Z</time>
      </trkpt>
      <trkpt lat="45.48372" lon="5.87922">
        <ele>1198</ele>
        <time>2019-12-09T19:44:46Z</time>
      </trkpt>
      <trkpt lat="45.48408" lon="5.87885">
        <ele>1209</ele>
        <time>2019-12-09T19:45:46Z</time>
      </trkpt>
      <trkpt lat="45.48427" lon="5.87838">
        <ele>1221</ele>
        <time>2019-12-09T19:46:36Z</time>
      </trkpt>
      <trkpt lat="45.48394" lon="5.8781">
        <ele>1230</ele>
        <time>2019-12-09T19:47:28Z</time>
      </trkpt>
      <trkpt lat="45.48455" lon="5.87775">
        <ele>1231</ele>
        <time>2019-12-09T19:48:55Z</time>
      </trkpt>
      <trkpt lat="45.48496" lon="5.87712">
        <ele>1237</ele>
        <time>2019-12-09T19:50:16Z</time>
      </trkpt>
      <trkpt lat="45.4853" lon="5.87742">
        <ele>1232</ele>
        <time>2019-12-09T19:51:09Z</time>
      </trkpt>
      <trkpt lat="45.48588" lon="5.87727">
        <ele>1238</ele>
        <time>2019-12-09T19:52:28Z</time>
      </trkpt>
      <trkpt lat="45.48616" lon="5.8769">
        <ele>1248</ele>
        <time>2019-12-09T19:53:19Z</time>
      </trkpt>
      <trkpt lat="45.48614" lon="5.87649">
        <ele>1256</ele>
        <time>2019-12-09T19:53:57Z</time>
      </trkpt>
      <trkpt lat="45.48676" lon="5.87583">
        <ele>1280</ele>
        <time>2019-12-09T19:55:40Z</time>
      </trkpt>
      <trkpt lat="45.48702" lon="5.87574">
        <ele>1293</ele>
        <time>2019-12-09T19:56:16Z</time>
      </trkpt>
      <trkpt lat="45.48731" lon="5.87525">
        <ele>1312</ele>
        <time>2019-12-09T19:57:16Z</time>
      </trkpt>
      <trkpt lat="45.48758" lon="5.87512">
        <ele>1323</ele>
        <time>2019-12-09T19:57:54Z</time>
      </trkpt>
      <trkpt lat="45.48777" lon="5.87493">
        <ele>1329</ele>
        <time>2019-12-09T19:58:25Z</time>
      </trkpt>
      <trkpt lat="45.48759" lon="5.8742">
        <ele>1322</ele>
        <time>2019-12-09T19:59:38Z</time>
      </trkpt>
      <trkpt lat="45.48768" lon="5.8739">
        <ele>1310</ele>
        <time>2019-12-09T20:00:08Z</time>
      </trkpt>
      <trkpt lat="45.48762" lon="5.87422">
        <ele>1322</ele>
        <time>2019-12-09T20:00:39Z</time>
      </trkpt>
      <trkpt lat="45.48791" lon="5.87472">
        <ele>1329</ele>
        <time>2019-12-09T20:01:40Z</time>
      </trkpt>
      <trkpt lat="45.48799" lon="5.87504">
        <ele>1337</ele>
        <time>2019-12-09T20:02:12Z</time>
      </trkpt>
      <trkpt lat="45.48831" lon="5.8754">
        <ele>1346</ele>
        <time>2019-12-09T20:03:06Z</time>
      </trkpt>
      <trkpt lat="45.48923" lon="5.87567">
        <ele>1349</ele>
        <time>2019-12-09T20:05:11Z</time>
      </trkpt>
      <trkpt lat="45.48995" lon="5.87555">
        <ele>1339</ele>
        <time>2019-12-09T20:06:48Z</time>
      </trkpt>
      <trkpt lat="45.49059" lon="5.87552">
        <ele>1343</ele>
        <time>2019-12-09T20:08:13Z</time>
      </trkpt>
      <trkpt lat="45.49093" lon="5.87532">
        <ele>1342</ele>
        <time>2019-12-09T20:09:03Z</time>
      </trkpt>
      <trkpt lat="45.49145" lon="5.8752">
        <ele>1338</ele>
        <time>2019-12-09T20:10:13Z</time>
      </trkpt>
      <trkpt lat="45.492" lon="5.87545">
        <ele>1340</ele>
        <time>2019-12-09T20:11:30Z</time>
      </trkpt>
      <trkpt lat="45.49234" lon="5.87584">
        <ele>1359</ele>
        <time>2019-12-09T20:12:28Z</time>
      </trkpt>
      <trkpt lat="45.49268" lon="5.87613">
        <ele>1366</ele>
        <time>2019-12-09T20:13:21Z</time>
      </trkpt>
      <trkpt lat="45.49284" lon="5.87649">
        <ele>1377</ele>
        <time>2019-12-09T20:14:01Z</time>
      </trkpt>
      <trkpt lat="45.49371" lon="5.87684">
        <ele>1383</ele>
        <time>2019-12-09T20:16:01Z</time>
      </trkpt>
      <trkpt lat="45.49438" lon="5.87752">
        <ele>1389</ele>
        <time>2019-12-09T20:17:51Z</time>
      </trkpt>
      <trkpt lat="45.49458" lon="5.87782">
        <ele>1387</ele>
        <time>2019-12-09T20:18:30Z</time>
      </trkpt>
      <trkpt lat="45.49545" lon="5.87842">
        <ele>1381</ele>
        <time>2019-12-09T20:20:39Z</time>
      </trkpt>
      <trkpt lat="45.49553" lon="5.87871">
        <ele>1384</ele>
        <time>2019-12-09T20:21:08Z</time>
      </trkpt>
      <trkpt lat="45.4959" lon="5.87918">
        <ele>1398</ele>
        <time>2019-12-09T20:22:14Z</time>
      </trkpt>
      <trkpt lat="45.49581" lon="5.87936">
        <ele>1404</ele>
        <time>2019-12-09T20:22:35Z</time>
      </trkpt>
      <trkpt lat="45.49646" lon="5.88148">
        <ele>1401</ele>
        <time>2019-12-09T20:26:11Z</time>
      </trkpt>
      <trkpt lat="45.49636" lon="5.88211">
        <ele>1388</ele>
        <time>2019-12-09T20:27:12Z</time>
      </trkpt>
      <trkpt lat="45.49622" lon="5.88256">
        <ele>1379</ele>
        <time>2019-12-09T20:27:58Z</time>
      </trkpt>
      <trkpt lat="45.49621" lon="5.88296">
        <ele>1367</ele>
        <time>2019-12-09T20:28:35Z</time>
      </trkpt>
      <trkpt lat="45.49615" lon="5.88311">
        <ele>1365</ele>
        <time>2019-12-09T20:28:51Z</time>
      </trkpt>
      <trkpt lat="45.49565" lon="5.88352">
        <ele>1360</ele>
        <time>2019-12-09T20:30:08Z</time>
      </trkpt>
      <trkpt lat="45.49541" lon="5.88396">
        <ele>1342</ele>
        <time>2019-12-09T20:31:00Z</time>
      </trkpt>
      <trkpt lat="45.49531" lon="5.88435">
        <ele>1330</ele>
        <time>2019-12-09T20:31:39Z</time>
      </trkpt>
      <trkpt lat="45.49536" lon="5.88482">
        <ele>1314</ele>
        <time>2019-12-09T20:32:24Z</time>
      </trkpt>
      <trkpt lat="45.49589" lon="5.88531">
        <ele>1296</ele>
        <time>2019-12-09T20:33:48Z</time>
      </trkpt>
      <trkpt lat="45.49596" lon="5.88614">
        <ele>1289</ele>
        <time>2019-12-09T20:35:06Z</time>
      </trkpt>
      <trkpt lat="45.49613" lon="5.88666">
        <ele>1289</ele>
        <time>2019-12-09T20:36:00Z</time>
      </trkpt>
      <trkpt lat="45.49567" lon="5.88701">
        <ele>1308</ele>
        <time>2019-12-09T20:37:10Z</time>
      </trkpt>
      <trkpt lat="45.49549" lon="5.88724">
        <ele>1302</ele>
        <time>2019-12-09T20:37:42Z</time>
      </trkpt>
      <trkpt lat="45.4955" lon="5.88764">
        <ele>1307</ele>
        <time>2019-12-09T20:38:19Z</time>
      </trkpt>
      <trkpt lat="45.4953" lon="5.88774">
        <ele>1295</ele>
        <time>2019-12-09T20:38:47Z</time>
      </trkpt>
      <trkpt lat="45.49519" lon="5.88796">
        <ele>1289</ele>
        <time>2019-12-09T20:39:13Z</time>
      </trkpt>
      <trkpt lat="45.49545" lon="5.88877">
        <ele>1304</ele>
        <time>2019-12-09T20:40:36Z</time>
      </trkpt>
      <trkpt lat="45.49536" lon="5.89032">
        <ele>1307</ele>
        <time>2019-12-09T20:43:02Z</time>
      </trkpt>
      <trkpt lat="45.49494" lon="5.89086">
        <ele>1292</ele>
        <time>2019-12-09T20:44:17Z</time>
      </trkpt>
      <trkpt lat="45.49411" lon="5.89074">
        <ele>1267</ele>
        <time>2019-12-09T20:46:08Z</time>
      </trkpt>
      <trkpt lat="45.49378" lon="5.89132">
        <ele>1270</ele>
        <time>2019-12-09T20:47:18Z</time>
      </trkpt>
      <trkpt lat="45.49355" lon="5.89154">
        <ele>1267</ele>
        <time>2019-12-09T20:47:55Z</time>
      </trkpt>
      <trkpt lat="45.49335" lon="5.89215">
        <ele>1279</ele>
        <time>2019-12-09T20:48:58Z</time>
      </trkpt>
      <trkpt lat="45.493" lon="5.89159">
        <ele>1264</ele>
        <time>2019-12-09T20:50:08Z</time>
      </trkpt>
      <trkpt lat="45.49253" lon="5.89114">
        <ele>1255</ele>
        <time>2019-12-09T20:51:24Z</time>
      </trkpt>
      <trkpt lat="45.49196" lon="5.89107">
        <ele>1253</ele>
        <time>2019-12-09T20:52:40Z</time>
      </trkpt>
      <trkpt lat="45.49155" lon="5.89074">
        <ele>1241</ele>
        <time>2019-12-09T20:53:43Z</time>
      </trkpt>
      <trkpt lat="45.49101" lon="5.89063">
        <ele>1234</ele>
        <time>2019-12-09T20:54:56Z</time>
      </trkpt>
      <trkpt lat="45.49092" lon="5.89067">
        <ele>1234</ele>
        <time>2019-12-09T20:55:08Z</time>
      </trkpt>
      <trkpt lat="45.49047" lon="5.89132">
        <ele>1239</ele>
        <time>2019-12-09T20:56:34Z</time>
      </trkpt>
      <trkpt lat="45.49018" lon="5.89123">
        <ele>1231</ele>
        <time>2019-12-09T20:57:14Z</time>
      </trkpt>
      <trkpt lat="45.48991" lon="5.89155">
        <ele>1235</ele>
        <time>2019-12-09T20:58:00Z</time>
      </trkpt>
      <trkpt lat="45.48938" lon="5.89146">
        <ele>1227</ele>
        <time>2019-12-09T20:59:12Z</time>
      </trkpt>
      <trkpt lat="45.48908" lon="5.89161">
        <ele>1224</ele>
        <time>2019-12-09T20:59:54Z</time>
      </trkpt>
      <trkpt lat="45.48881" lon="5.89161">
        <ele>1219</ele>
        <time>2019-12-09T21:00:30Z</time>
      </trkpt>
      <trkpt lat="45.48853" lon="5.89175">
        <ele>1214</ele>
        <time>2019-12-09T21:01:10Z</time>
      </trkpt>
      <trkpt lat="45.48825" lon="5.89172">
        <ele>1208</ele>
        <time>2019-12-09T21:01:47Z</time>
      </trkpt>
      <trkpt lat="45.48784" lon="5.89146">
        <ele>1199</ele>
        <time>2019-12-09T21:02:47Z</time>
      </trkpt>
      <trkpt lat="45.48761" lon="5.8913">
        <ele>1192</ele>
        <time>2019-12-09T21:03:21Z</time>
      </trkpt>
      <trkpt lat="45.48713" lon="5.89143">
        <ele>1193</ele>
        <time>2019-12-09T21:04:26Z</time>
      </trkpt>
      <trkpt lat="45.48648" lon="5.89166">
        <ele>1197</ele>
        <time>2019-12-09T21:05:56Z</time>
      </trkpt>
      <trkpt lat="45.486" lon="5.89199">
        <ele>1194</ele>
        <time>2019-12-09T21:07:07Z</time>
      </trkpt>
      <trkpt lat="45.48569" lon="5.89305">
        <ele>1201</ele>
        <time>2019-12-09T21:08:54Z</time>
      </trkpt>
      <trkpt lat="45.48555" lon="5.89383">
        <ele>1214</ele>
        <time>2019-12-09T21:10:10Z</time>
      </trkpt>
      <trkpt lat="45.48543" lon="5.894">
        <ele>1215</ele>
        <time>2019-12-09T21:10:32Z</time>
      </trkpt>
      <trkpt lat="45.48401" lon="5.895">
        <ele>1212</ele>
        <time>2019-12-09T21:14:03Z</time>
      </trkpt>
      <trkpt lat="45.48432" lon="5.8956">
        <ele>1212</ele>
        <time>2019-12-09T21:15:13Z</time>
      </trkpt>
      <trkpt lat="45.4849" lon="5.89576">
        <ele>1217</ele>
        <time>2019-12-09T21:16:32Z</time>
      </trkpt>
      <trkpt lat="45.48459" lon="5.89632">
        <ele>1210</ele>
        <time>2019-12-09T21:17:39Z</time>
      </trkpt>
      <trkpt lat="45.484" lon="5.89726">
        <ele>1197</ele>
        <time>2019-12-09T21:19:37Z</time>
      </trkpt>
      <trkpt lat="45.48398" lon="5.89753">
        <ele>1196</ele>
        <time>2019-12-09T21:20:02Z</time>
      </trkpt>
      <trkpt lat="45.48392" lon="5.89779">
        <ele>1195</ele>
        <time>2019-12-09T21:20:28Z</time>
      </trkpt>
      <trkpt lat="45.4834" lon="5.89816">
        <ele>1189</ele>
        <time>2019-12-09T21:21:45Z</time>
      </trkpt>
      <trkpt lat="45.48274" lon="5.89888">
        <ele>1186</ele>
        <time>2019-12-09T21:23:36Z</time>
      </trkpt>
      <trkpt lat="45.48193" lon="5.89943">
        <ele>1187</ele>
        <time>2019-12-09T21:25:36Z</time>
      </trkpt>
      <trkpt lat="45.48138" lon="5.89956">
        <ele>1189</ele>
        <time>2019-12-09T21:26:50Z</time>
      </trkpt>
      <trkpt lat="45.48068" lon="5.89999">
        <ele>1196</ele>
        <time>2019-12-09T21:28:32Z</time>
      </trkpt>
      <trkpt lat="45.48023" lon="5.90008">
        <ele>1197</ele>
        <time>2019-12-09T21:29:33Z</time>
      </trkpt>
      <trkpt lat="45.47962" lon="5.90032">
        <ele>1200</ele>
        <time>2019-12-09T21:30:57Z</time>
      </trkpt>
      <trkpt lat="45.47925" lon="5.90049">
        <ele>1199</ele>
        <time>2019-12-09T21:31:49Z</time>
      </trkpt>
      <trkpt lat="45.47904" lon="5.90075">
        <ele>1199</ele>
        <time>2019-12-09T21:32:26Z</time>
      </trkpt>
      <trkpt lat="45.47889" lon="5.90146">
        <ele>1201</ele>
        <time>2019-12-09T21:33:36Z</time>
      </trkpt>
      <trkpt lat="45.47889" lon="5.90236">
        <ele>1205</ele>
        <time>2019-12-09T21:35:00Z</time>
      </trkpt>
      <trkpt lat="45.4787" lon="5.90342">
        <ele>1197</ele>
        <time>2019-12-09T21:36:42Z</time>
      </trkpt>
      <trkpt lat="45.47875" lon="5.90413">
        <ele>1195</ele>
        <time>2019-12-09T21:37:49Z</time>
      </trkpt>
      <trkpt lat="45.47872" lon="5.9049">
        <ele>1195</ele>
        <time>2019-12-09T21:39:01Z</time>
      </trkpt>
      <trkpt lat="45.4788" lon="5.90574">
        <ele>1197</ele>
        <time>2019-12-09T21:40:20Z</time>
      </trkpt>
      <trkpt lat="45.47882" lon="5.90635">
        <ele>1190</ele>
        <time>2019-12-09T21:41:18Z</time>
      </trkpt>
      <trkpt lat="45.47912" lon="5.9073">
        <ele>1192</ele>
        <time>2019-12-09T21:42:55Z</time>
      </trkpt>
      <trkpt lat="45.47917" lon="5.9078">
        <ele>1186</ele>
        <time>2019-12-09T21:43:42Z</time>
      </trkpt>
      <trkpt lat="45.47907" lon="5.90814">
        <ele>1176</ele>
        <time>2019-12-09T21:44:17Z</time>
      </trkpt>
      <trkpt lat="45.47938" lon="5.90918">
        <ele>1171</ele>
        <time>2019-12-09T21:46:03Z</time>
      </trkpt>
      <trkpt lat="45.47954" lon="5.9102">
        <ele>1162</ele>
        <time>2019-12-09T21:47:40Z</time>
      </trkpt>
      <trkpt lat="45.47967" lon="5.91081">
        <ele>1156</ele>
        <time>2019-12-09T21:48:40Z</time>
      </trkpt>
      <trkpt lat="45.48012" lon="5.91173">
        <ele>1160</ele>
        <time>2019-12-09T21:50:25Z</time>
      </trkpt>
      <trkpt lat="45.48017" lon="5.91296">
        <ele>1149</ele>
        <time>2019-12-09T21:52:20Z</time>
      </trkpt>
      <trkpt lat="45.48007" lon="5.91358">
        <ele>1141</ele>
        <time>2019-12-09T21:53:20Z</time>
      </trkpt>
      <trkpt lat="45.48015" lon="5.9146">
        <ele>1137</ele>
        <time>2019-12-09T21:54:56Z</time>
      </trkpt>
    </trkseg>
  </trk>
</gpx>